Time;durP1;ratioP1;P1;durP2;ratioP2;P2;SDS_P1;SDS_P2;PMS_P1;PMS_P2;Temp;Humidity;BMP_temperature;BMP_pressure;BME280_temperature;BME280_humidity;BME280_pressure;Samples;Min_cycle;Max_cycle;Signal;HPM_P1;HPM_P2
2021/05/19 00:01:32;;;;;;;3.10;2.90;;;9.50;99.90;;;;;;5112374;28;20227;-84
2021/05/19 00:03:58;;;;;;;3.15;2.85;;;9.40;99.90;;;;;;5099774;28;20228;-84
2021/05/19 00:06:24;;;;;;;3.05;2.85;;;9.40;99.90;;;;;;5099048;28;20678;-84
2021/05/19 00:08:52;;;;;;;3.30;3.00;;;9.40;99.90;;;;;;5100071;28;20204;-84
2021/05/19 00:11:18;;;;;;;3.55;3.28;;;9.40;99.90;;;;;;5099765;28;20200;-84
2021/05/19 00:13:44;;;;;;;3.20;3.00;;;9.40;99.90;;;;;;5099513;28;20220;-84
2021/05/19 00:16:11;;;;;;;3.42;3.13;;;9.50;99.90;;;;;;5099257;28;20205;-84
2021/05/19 00:18:37;;;;;;;4.40;4.10;;;9.50;99.90;;;;;;5100582;28;20211;-84
2021/05/19 00:21:05;;;;;;;5.50;3.60;;;9.40;99.90;;;;;;5103353;28;20225;-84
2021/05/19 00:23:32;;;;;;;3.38;3.15;;;9.40;99.90;;;;;;5103753;28;20228;-84
2021/05/19 00:25:59;;;;;;;3.83;3.53;;;9.40;99.90;;;;;;5103704;28;20204;-84
2021/05/19 00:28:25;;;;;;;3.92;3.35;;;9.40;99.90;;;;;;5103774;28;20204;-84
2021/05/19 00:30:55;;;;;;;4.10;3.78;;;9.40;99.90;;;;;;5103532;28;20693;-84
2021/05/19 00:33:22;;;;;;;4.45;3.40;;;9.40;99.90;;;;;;5105065;28;20205;-84
2021/05/19 00:35:48;;;;;;;3.97;3.40;;;9.40;99.90;;;;;;5106258;28;20211;-84
2021/05/19 00:38:15;;;;;;;3.70;3.40;;;9.50;99.90;;;;;;5105037;28;20238;-84
2021/05/19 00:40:41;;;;;;;4.15;3.28;;;9.50;99.90;;;;;;5103140;28;20239;-84
2021/05/19 00:43:08;;;;;;;2.97;2.83;;;9.50;99.90;;;;;;5103320;28;20209;-84
2021/05/19 00:45:34;;;;;;;4.25;3.85;;;9.60;99.90;;;;;;5103002;28;20224;-83
2021/05/19 00:48:01;;;;;;;3.47;3.17;;;9.60;99.90;;;;;;5102335;28;20567;-84
2021/05/19 00:50:29;;;;;;;5.65;3.50;;;9.60;99.90;;;;;;5102632;28;20200;-84
2021/05/19 00:52:55;;;;;;;4.65;3.33;;;9.60;99.90;;;;;;5102859;28;20206;-84
2021/05/19 00:55:22;;;;;;;3.70;3.45;;;9.60;99.90;;;;;;5102910;28;20233;-84
2021/05/19 00:57:51;;;;;;;4.40;4.10;;;9.70;99.90;;;;;;5103976;28;20209;-84
2021/05/19 01:00:21;;;;;;;4.30;3.80;;;9.70;99.90;;;;;;5102954;28;20217;-83
2021/05/19 01:02:47;;;;;;;4.80;3.53;;;9.80;99.90;;;;;;5102488;28;20243;-83
2021/05/19 01:05:21;;;;;;;5.35;4.78;;;9.70;99.90;;;;;;5102644;28;20875;-84
2021/05/19 01:10:32;;;;;;;3.47;3.13;;;9.70;99.90;;;;;;5102278;28;20257;-83
2021/05/19 01:12:59;;;;;;;3.40;3.20;;;9.70;99.90;;;;;;5102193;28;20216;-84
2021/05/19 01:15:26;;;;;;;4.05;3.67;;;9.70;99.90;;;;;;5102186;28;20226;-83
2021/05/19 01:17:52;;;;;;;3.43;3.23;;;9.70;99.90;;;;;;5102225;28;20208;-83
2021/05/19 01:20:19;;;;;;;4.47;3.72;;;9.60;99.90;;;;;;5102405;28;20451;-83
2021/05/19 01:22:47;;;;;;;4.05;3.75;;;9.60;99.90;;;;;;5102831;28;20251;-83
2021/05/19 01:25:13;;;;;;;3.78;3.47;;;9.70;99.90;;;;;;5101599;28;20237;-83
2021/05/19 01:27:39;;;;;;;3.17;2.97;;;9.70;99.90;;;;;;5101724;28;20213;-83
2021/05/19 01:30:18;;;;;;;;;;;;;;;;;;;;;
2021/05/19 01:32:55;;;;;;;;;;;;;;;;;;;;;
2021/05/19 01:45:10;;;;;;;;;;;;;;;;;;;;;
2021/05/19 02:20:20;;;;;;;4.15;3.85;;;9.80;99.90;;;;;;4901831;29;20636;-83
2021/05/19 02:22:48;;;;;;;5.60;4.35;;;9.70;99.90;;;;;;4923578;29;20226;-84
2021/05/19 02:25:15;;;;;;;4.20;3.80;;;9.70;99.90;;;;;;4980294;28;20232;-84
2021/05/19 02:27:43;;;;;;;4.10;3.80;;;9.70;99.90;;;;;;5019690;28;20214;-83
2021/05/19 02:30:11;;;;;;;3.03;2.83;;;9.60;99.90;;;;;;5045422;28;20239;-83
2021/05/19 02:32:37;;;;;;;3.08;2.80;;;9.60;99.90;;;;;;5100292;28;20204;-83
2021/05/19 02:35:04;;;;;;;3.55;3.25;;;9.60;99.90;;;;;;5101149;28;20228;-84
2021/05/19 02:37:32;;;;;;;2.90;2.70;;;9.60;99.90;;;;;;5100611;28;20223;-83
2021/05/19 02:39:58;;;;;;;3.30;2.90;;;9.60;99.90;;;;;;5100747;28;20561;-83
2021/05/19 02:42:27;;;;;;;3.22;3.03;;;9.60;99.90;;;;;;5099322;28;20225;-84
2021/05/19 02:44:53;;;;;;;3.20;2.70;;;9.60;99.90;;;;;;5101319;28;20234;-83
2021/05/19 02:47:19;;;;;;;5.82;3.47;;;9.60;99.90;;;;;;5100859;28;20204;-84
2021/05/19 02:49:45;;;;;;;3.88;3.58;;;9.60;99.90;;;;;;5100859;28;20263;-84
2021/05/19 02:52:12;;;;;;;4.32;3.13;;;9.60;99.90;;;;;;5100274;28;20755;-84
2021/05/19 02:54:39;;;;;;;3.90;3.00;;;9.60;99.90;;;;;;5100211;28;20221;-83
2021/05/19 02:57:06;;;;;;;3.47;3.17;;;9.60;99.90;;;;;;5100396;28;20206;-84
2021/05/19 02:59:32;;;;;;;3.65;3.38;;;9.60;99.90;;;;;;5099942;28;20221;-84
2021/05/19 03:01:59;;;;;;;3.83;3.50;;;9.60;99.90;;;;;;5099988;28;20228;-84
2021/05/19 03:04:25;;;;;;;3.75;3.45;;;9.70;99.90;;;;;;5100725;28;20221;-84
2021/05/19 03:06:51;;;;;;;2.53;2.42;;;9.70;99.90;;;;;;5100173;28;20205;-84
2021/05/19 03:09:18;;;;;;;3.60;3.30;;;9.70;99.90;;;;;;5100308;28;20212;-84
2021/05/19 03:11:45;;;;;;;3.50;3.30;;;9.70;99.90;;;;;;5099873;28;20285;-84
2021/05/19 03:14:11;;;;;;;3.63;3.05;;;9.70;99.90;;;;;;5100161;28;20216;-84
2021/05/19 03:16:38;;;;;;;2.88;2.67;;;9.80;99.90;;;;;;5100183;28;20208;-84
2021/05/19 03:19:05;;;;;;;2.92;2.72;;;9.70;99.90;;;;;;5101828;28;20211;-84
2021/05/19 03:21:31;;;;;;;3.50;3.20;;;9.80;99.90;;;;;;5102212;28;20242;-83
2021/05/19 03:23:57;;;;;;;3.50;3.20;;;9.70;99.90;;;;;;5099753;28;20224;-83
2021/05/19 03:26:25;;;;;;;3.67;3.40;;;9.70;99.90;;;;;;5099819;28;20200;-83
2021/05/19 03:28:52;;;;;;;3.33;3.10;;;9.70;99.90;;;;;;5099829;28;20213;-84
2021/05/19 03:31:19;;;;;;;3.63;3.17;;;9.70;99.90;;;;;;5099734;28;20201;-83
2021/05/19 03:33:45;;;;;;;3.30;3.00;;;9.70;99.90;;;;;;5099781;28;20307;-83
2021/05/19 03:36:12;;;;;;;6.15;3.97;;;9.70;99.90;;;;;;5099735;28;20215;-83
2021/05/19 03:38:38;;;;;;;3.55;3.25;;;9.80;99.90;;;;;;5099141;28;20206;-82
2021/05/19 03:41:06;;;;;;;3.73;3.43;;;9.80;99.90;;;;;;5099334;28;20305;-82
2021/05/19 03:43:33;;;;;;;4.07;2.90;;;9.80;99.90;;;;;;5099802;28;20980;-83
2021/05/19 03:46:01;;;;;;;3.53;3.20;;;9.80;99.90;;;;;;5099908;28;20678;-83
2021/05/19 03:48:27;;;;;;;3.60;3.30;;;9.80;99.90;;;;;;5099757;28;20661;-83
2021/05/19 03:50:54;;;;;;;3.38;3.05;;;9.80;99.90;;;;;;5099348;28;20205;-83
2021/05/19 03:53:20;;;;;;;3.38;3.08;;;9.80;99.90;;;;;;5100116;28;20214;-83
2021/05/19 03:55:46;;;;;;;3.20;3.00;;;9.80;99.90;;;;;;5104119;28;20205;-84
2021/05/19 03:58:14;;;;;;;3.90;3.65;;;9.80;99.90;;;;;;5104095;28;20234;-83
2021/05/19 04:00:40;;;;;;;4.22;4.00;;;9.80;99.90;;;;;;5103311;28;20212;-83
2021/05/19 04:03:08;;;;;;;3.30;3.00;;;9.70;99.90;;;;;;5103566;28;20247;-83
2021/05/19 04:05:36;;;;;;;3.90;3.60;;;9.70;99.90;;;;;;5103446;28;20257;-83
2021/05/19 04:08:06;;;;;;;4.03;3.72;;;9.60;99.90;;;;;;5103198;28;20214;-83
2021/05/19 04:10:33;;;;;;;3.40;3.20;;;9.70;99.90;;;;;;5104563;28;20209;-83
2021/05/19 04:13:03;;;;;;;4.25;3.95;;;9.60;99.90;;;;;;5104534;28;20211;-84
2021/05/19 04:15:30;;;;;;;4.00;3.70;;;9.60;99.90;;;;;;5104372;28;20221;-83
2021/05/19 04:17:57;;;;;;;3.53;3.30;;;9.50;99.90;;;;;;5103060;28;20566;-83
2021/05/19 04:20:24;;;;;;;4.10;3.70;;;9.60;99.90;;;;;;5103395;28;20206;-83
2021/05/19 04:22:51;;;;;;;3.72;3.42;;;9.60;99.90;;;;;;5103657;28;20225;-83
2021/05/19 04:25:17;;;;;;;3.95;3.53;;;9.60;99.90;;;;;;5103070;28;20232;-84
2021/05/19 04:27:44;;;;;;;3.60;3.40;;;9.60;99.90;;;;;;5102737;28;20211;-83
2021/05/19 04:30:11;;;;;;;3.50;3.30;;;9.60;99.90;;;;;;5103062;28;20220;-83
2021/05/19 04:32:38;;;;;;;4.82;4.45;;;9.70;99.90;;;;;;5103185;28;20197;-83
2021/05/19 04:35:06;;;;;;;4.85;4.45;;;9.70;99.90;;;;;;5102852;28;20224;-83
2021/05/19 04:37:33;;;;;;;4.72;4.43;;;9.70;99.90;;;;;;5102714;28;20205;-83
2021/05/19 04:39:59;;;;;;;4.95;4.55;;;9.70;99.90;;;;;;5103078;28;20209;-83
2021/05/19 04:42:26;;;;;;;3.90;3.63;;;9.70;99.90;;;;;;5103152;28;20232;-83
2021/05/19 04:44:53;;;;;;;4.45;4.15;;;9.70;99.90;;;;;;5102423;28;20648;-83
2021/05/19 04:47:19;;;;;;;5.53;5.05;;;9.70;99.90;;;;;;5102712;28;20205;-83
2021/05/19 04:49:45;;;;;;;3.47;3.28;;;9.70;99.90;;;;;;5102487;28;20674;-82
2021/05/19 04:52:11;;;;;;;4.25;3.83;;;9.70;99.90;;;;;;5102315;28;20291;-83
2021/05/19 04:54:40;;;;;;;4.65;4.25;;;9.80;99.90;;;;;;5102555;28;20224;-83
2021/05/19 04:57:06;;;;;;;5.57;4.50;;;9.80;99.90;;;;;;5102562;28;20205;-83
2021/05/19 04:59:32;;;;;;;4.97;4.57;;;9.90;99.90;;;;;;5102111;28;20227;-83
2021/05/19 05:01:58;;;;;;;4.63;4.18;;;10.00;99.90;;;;;;5101946;28;20213;-83
2021/05/19 05:04:25;;;;;;;5.22;4.82;;;10.00;99.90;;;;;;5101660;28;20224;-83
2021/05/19 05:06:51;;;;;;;5.13;4.72;;;10.00;99.90;;;;;;5101741;28;20209;-83
2021/05/19 05:09:17;;;;;;;4.15;3.85;;;10.10;99.90;;;;;;5102178;28;20204;-83
2021/05/19 05:11:44;;;;;;;5.38;4.65;;;10.10;99.90;;;;;;5101899;28;20201;-83
2021/05/19 05:14:10;;;;;;;6.00;5.50;;;10.20;99.90;;;;;;5102658;28;20222;-83
2021/05/19 05:16:37;;;;;;;4.40;4.00;;;10.20;99.90;;;;;;5101570;28;20255;-83
2021/05/19 05:19:03;;;;;;;4.45;4.13;;;10.20;99.90;;;;;;5102701;28;20291;-82
2021/05/19 05:21:30;;;;;;;5.43;4.97;;;10.20;99.90;;;;;;5101621;28;20225;-83
2021/05/19 05:23:56;;;;;;;4.78;4.38;;;10.30;99.90;;;;;;5102889;28;20248;-83
2021/05/19 05:26:22;;;;;;;5.07;4.68;;;10.30;99.90;;;;;;5102391;28;20231;-83
2021/05/19 05:28:49;;;;;;;5.72;4.25;;;10.40;99.90;;;;;;5101543;28;20213;-83
2021/05/19 05:31:15;;;;;;;4.32;3.92;;;10.40;99.90;;;;;;5101577;28;20210;-83
2021/05/19 05:33:42;;;;;;;5.10;4.78;;;10.40;99.90;;;;;;5101788;28;20217;-82
2021/05/19 05:36:08;;;;;;;4.78;4.47;;;10.50;99.90;;;;;;5101754;28;20205;-83
2021/05/19 05:38:34;;;;;;;4.82;4.20;;;10.50;99.90;;;;;;5101723;28;20213;-81
2021/05/19 05:41:01;;;;;;;5.25;4.85;;;10.60;99.90;;;;;;5105596;28;20221;-79
2021/05/19 05:43:27;;;;;;;5.93;5.45;;;10.60;99.90;;;;;;5108843;28;20371;-81
2021/05/19 05:45:54;;;;;;;4.40;4.10;;;10.70;99.90;;;;;;5109882;28;20216;-81
2021/05/19 05:48:20;;;;;;;4.40;4.00;;;10.70;99.90;;;;;;5113543;28;20209;-82
2021/05/19 05:50:47;;;;;;;5.20;4.80;;;10.70;99.90;;;;;;5102882;28;20209;-84
2021/05/19 05:53:13;;;;;;;5.22;4.82;;;10.70;99.90;;;;;;5102988;28;20754;-79
2021/05/19 05:55:39;;;;;;;5.50;5.07;;;10.70;99.90;;;;;;5101148;28;20201;-83
2021/05/19 05:58:05;;;;;;;4.55;4.18;;;10.70;99.90;;;;;;5100461;28;20209;-84
2021/05/19 06:00:32;;;;;;;6.40;5.80;;;10.80;99.90;;;;;;5100907;28;20217;-82
2021/05/19 06:02:59;;;;;;;5.40;5.00;;;10.70;99.90;;;;;;5101475;28;20225;-82
2021/05/19 06:05:25;;;;;;;7.00;6.43;;;10.80;99.90;;;;;;5101541;28;20596;-82
2021/05/19 06:07:51;;;;;;;5.85;5.35;;;10.80;99.90;;;;;;5100932;28;20255;-82
2021/05/19 06:10:24;;;;;;;9.95;5.90;;;10.90;99.90;;;;;;5102254;28;20210;-82
2021/05/19 06:12:50;;;;;;;10.30;5.03;;;10.90;99.90;;;;;;5101886;28;20195;-82
2021/05/19 06:15:16;;;;;;;5.47;5.07;;;10.90;99.90;;;;;;5101748;28;20475;-82
2021/05/19 06:17:43;;;;;;;6.18;5.60;;;11.00;99.90;;;;;;5101452;28;20812;-82
2021/05/19 06:20:12;;;;;;;6.55;6.00;;;11.00;99.90;;;;;;5102028;28;20297;-82
2021/05/19 06:22:38;;;;;;;6.13;5.50;;;11.10;99.90;;;;;;5101004;28;20229;-83
2021/05/19 06:25:05;;;;;;;6.83;6.30;;;11.10;99.90;;;;;;5102349;28;20250;-82
2021/05/19 06:27:32;;;;;;;6.97;6.37;;;11.20;99.90;;;;;;5102110;28;20453;-82
2021/05/19 06:29:58;;;;;;;6.07;5.50;;;11.20;99.90;;;;;;5102008;28;20590;-84
2021/05/19 06:32:24;;;;;;;6.67;6.03;;;11.30;99.90;;;;;;5101821;28;20794;-83
2021/05/19 06:34:50;;;;;;;5.77;5.27;;;11.40;99.90;;;;;;5101974;28;20472;-84
2021/05/19 06:37:18;;;;;;;5.10;4.60;;;11.50;99.90;;;;;;5101934;28;20452;-82
2021/05/19 06:39:45;;;;;;;6.23;4.80;;;11.50;99.90;;;;;;5112834;28;20458;-82
2021/05/19 06:42:11;;;;;;;4.93;4.53;;;11.60;99.90;;;;;;5111789;28;20482;-83
2021/05/19 06:44:37;;;;;;;5.17;4.67;;;11.60;99.90;;;;;;5121878;28;20236;-83
2021/05/19 06:47:04;;;;;;;5.33;4.93;;;11.70;99.90;;;;;;5119325;28;20487;-83
2021/05/19 06:49:31;;;;;;;5.03;4.73;;;11.80;99.90;;;;;;5103382;28;20543;-82
2021/05/19 06:51:57;;;;;;;5.10;4.63;;;11.50;99.90;;;;;;5109482;28;20588;-82
2021/05/19 06:54:24;;;;;;;4.37;4.00;;;11.60;99.90;;;;;;5104665;28;20491;-82
2021/05/19 06:56:50;;;;;;;5.07;4.57;;;11.70;99.90;;;;;;5111323;28;20455;-83
2021/05/19 06:59:19;;;;;;;5.07;4.67;;;11.80;99.90;;;;;;5103844;28;20451;-82
2021/05/19 07:01:46;;;;;;;5.00;4.60;;;12.00;99.90;;;;;;5101813;28;20468;-83
2021/05/19 07:10:47;;;;;;;4.17;3.87;;;12.30;99.90;;;;;;5004940;28;20442;-83
2021/05/19 07:36:07;;;;;;;3.20;3.00;;;12.70;99.90;;;;;;4873551;29;20603;-83
2021/05/19 07:38:56;;;;;;;5.10;4.70;;;12.40;99.90;;;;;;4899079;29;20460;-83
2021/05/19 07:41:23;;;;;;;2.90;2.70;;;12.30;99.90;;;;;;4968975;28;20467;-81
2021/05/19 07:44:23;;;;;;;3.23;3.03;;;12.40;99.90;;;;;;5049114;28;20489;-82
2021/05/19 07:46:59;;;;;;;4.67;3.47;;;12.40;99.90;;;;;;5077138;28;20446;-83
2021/05/19 07:49:39;;;;;;;3.77;2.80;;;12.60;99.90;;;;;;5061619;28;20501;-83
2021/05/19 07:52:21;;;;;;;2.93;2.70;;;12.60;99.90;;;;;;5055642;28;20427;-83
2021/05/19 07:55:30;;;;;;;4.03;3.63;;;12.60;99.90;;;;;;5056334;28;20542;-83
2021/05/19 08:05:11;;;;;;;;;;;;;;;;;;;;;
2021/05/19 08:21:16;;;;;;;2.77;2.57;;;12.50;99.90;;;;;;4906326;29;20462;-82
2021/05/19 08:41:10;;;;;;;3.27;2.97;;;12.70;99.90;;;;;;4883969;29;21026;-84
2021/05/19 08:43:37;;;;;;;4.80;3.20;;;12.60;99.90;;;;;;4973440;28;21088;-83
2021/05/19 08:46:08;;;;;;;6.87;4.30;;;12.70;99.90;;;;;;5093528;28;20450;-83
2021/05/19 08:48:35;;;;;;;3.40;3.07;;;12.80;99.90;;;;;;5102608;28;20479;-83
2021/05/19 08:51:01;;;;;;;3.40;3.20;;;12.90;99.90;;;;;;5102797;28;20459;-85
2021/05/19 08:53:28;;;;;;;2.60;2.50;;;12.90;99.90;;;;;;5101519;28;20484;-83
2021/05/19 08:55:55;;;;;;;2.63;2.43;;;13.10;99.90;;;;;;5101599;28;20468;-84
2021/05/19 08:58:22;;;;;;;2.73;2.53;;;13.20;99.90;;;;;;5101602;28;20512;-82
2021/05/19 09:00:49;;;;;;;2.80;2.50;;;13.40;99.90;;;;;;5101655;28;20461;-82
2021/05/19 09:03:16;;;;;;;3.37;2.80;;;13.50;99.90;;;;;;5100802;28;20845;-83
2021/05/19 09:05:45;;;;;;;3.50;2.47;;;13.50;99.90;;;;;;5100554;28;20439;-83
2021/05/19 09:08:14;;;;;;;2.37;2.27;;;13.60;99.90;;;;;;5100823;28;20454;-83
2021/05/19 09:10:42;;;;;;;2.43;2.20;;;13.60;99.90;;;;;;5101200;28;20982;-84
2021/05/19 09:13:30;;;;;;;3.17;2.37;;;13.30;99.90;;;;;;5100964;28;20447;-81
2021/05/19 09:15:56;;;;;;;2.70;2.50;;;13.30;99.90;;;;;;5100468;28;20446;-82
2021/05/19 09:18:22;;;;;;;3.00;2.70;;;13.40;99.90;;;;;;5100506;28;20443;-82
2021/05/19 09:20:51;;;;;;;2.70;2.43;;;13.20;99.90;;;;;;5099021;28;20451;-80
2021/05/19 09:23:20;;;;;;;2.17;1.97;;;13.20;99.90;;;;;;5100118;28;20540;-84
2021/05/19 09:26:04;;;;;;;2.00;1.90;;;13.20;99.90;;;;;;5090613;28;20557;-82
2021/05/19 09:28:31;;;;;;;1.40;1.30;;;13.10;99.90;;;;;;5100995;28;20443;-81
2021/05/19 09:30:58;;;;;;;2.80;1.97;;;13.20;99.90;;;;;;5101653;28;20517;-83
2021/05/19 09:33:27;;;;;;;1.97;1.87;;;13.30;99.90;;;;;;5101332;28;20446;-82
2021/05/19 09:36:13;;;;;;;2.00;1.90;;;13.50;99.90;;;;;;5100887;28;20845;-84
2021/05/19 09:38:39;;;;;;;1.40;1.30;;;13.70;99.90;;;;;;5102710;28;20431;-83
2021/05/19 09:41:17;;;;;;;1.90;1.40;;;13.80;99.00;;;;;;5102009;28;20459;-83
2021/05/19 09:43:44;;;;;;;1.57;1.23;;;13.90;98.00;;;;;;5101476;28;20512;-83
2021/05/19 09:46:16;;;;;;;3.50;1.53;;;13.90;98.00;;;;;;5101347;28;20829;-84
2021/05/19 09:48:43;;;;;;;4.47;1.80;;;13.90;98.40;;;;;;5101079;28;20446;-82
2021/05/19 09:51:10;;;;;;;2.37;1.60;;;14.10;98.10;;;;;;5100272;28;20509;-82
2021/05/19 09:53:36;;;;;;;2.27;2.00;;;14.30;97.30;;;;;;5100351;28;20466;-84
2021/05/19 09:56:06;;;;;;;1.50;1.40;;;14.40;97.30;;;;;;5100408;28;20447;-84
2021/05/19 09:58:35;;;;;;;2.00;1.80;;;14.40;96.30;;;;;;5082325;28;20819;-85
2021/05/19 10:01:06;;;;;;;1.77;1.30;;;14.60;96.10;;;;;;5082187;28;20463;-85
2021/05/19 10:03:35;;;;;;;1.60;1.50;;;14.60;93.60;;;;;;5080039;28;20493;-84
2021/05/19 10:06:07;;;;;;;0.90;0.90;;;14.50;93.10;;;;;;5080919;28;20447;-83
2021/05/19 10:08:33;;;;;;;0.90;0.90;;;14.40;93.40;;;;;;5080358;28;20934;-81
2021/05/19 10:11:01;;;;;;;1.80;1.00;;;14.50;92.30;;;;;;5081077;28;20855;-83
2021/05/19 10:13:29;;;;;;;1.00;0.90;;;14.50;91.10;;;;;;5080171;28;20534;-83
2021/05/19 10:15:57;;;;;;;1.80;1.20;;;14.70;92.00;;;;;;5080013;28;20460;-84
2021/05/19 10:18:29;;;;;;;3.30;1.43;;;14.70;91.40;;;;;;5080302;28;20455;-83
2021/05/19 10:20:56;;;;;;;1.10;1.10;;;14.70;90.30;;;;;;5120701;28;20433;-84
2021/05/19 10:23:28;;;;;;;1.07;1.07;;;14.70;90.50;;;;;;5120415;28;20478;-82
2021/05/19 10:26:06;;;;;;;1.43;1.23;;;14.80;92.00;;;;;;5121276;28;20493;-84
2021/05/19 10:28:50;;;;;;;0.60;0.60;;;15.10;91.90;;;;;;5121570;28;20488;-84
2021/05/19 10:31:33;;;;;;;0.90;0.70;;;15.30;90.00;;;;;;5121441;28;20500;-85
2021/05/19 10:34:01;;;;;;;1.87;0.80;;;15.40;87.80;;;;;;5119403;28;20556;-83
2021/05/19 10:36:45;;;;;;;24.73;8.57;;;15.50;86.20;;;;;;5121464;28;20450;-84
2021/05/19 10:39:36;;;;;;;1.20;1.20;;;15.50;87.70;;;;;;5120997;28;20425;-83
2021/05/19 10:42:02;;;;;;;6.43;3.90;;;15.60;82.20;;;;;;5121004;28;20476;-82
2021/05/19 10:50:34;;;;;;;2.83;1.23;;;15.30;85.20;;;;;;5021906;28;20453;-82
2021/05/19 10:58:41;;;;;;;1.23;0.70;;;16.00;86.10;;;;;;5045527;28;20457;-86
2021/05/19 11:01:10;;;;;;;1.90;0.90;;;16.30;80.90;;;;;;5040871;28;20459;-84
2021/05/19 11:22:41;;;;;;;0.97;0.83;;;18.50;68.70;;;;;;4829206;29;20857;-85
2021/05/19 11:26:19;;;;;;;0.80;0.60;;;18.80;64.50;;;;;;4907180;28;20902;-83
2021/05/19 11:39:50;;;;;;;3.37;2.77;;;19.70;60.60;;;;;;4916092;29;20458;-85
2021/05/19 11:42:23;;;;;;;1.40;0.90;;;19.40;61.10;;;;;;4936138;28;20501;-84
2021/05/19 11:44:54;;;;;;;1.00;0.90;;;19.40;62.00;;;;;;5119410;28;20469;-82
2021/05/19 11:47:24;;;;;;;1.33;0.90;;;19.40;61.30;;;;;;5121514;28;20456;-79
2021/05/19 11:50:08;;;;;;;1.50;0.90;;;19.30;59.40;;;;;;5122311;28;20449;-80
2021/05/19 11:52:42;;;;;;;1.30;0.93;;;19.40;59.90;;;;;;5125394;28;20929;-79
2021/05/19 11:55:26;;;;;;;2.43;2.17;;;19.50;61.60;;;;;;5123569;28;20490;-79
2021/05/19 11:58:06;;;;;;;0.90;0.90;;;19.60;61.90;;;;;;5119200;28;20446;-84
2021/05/19 12:00:36;;;;;;;1.70;1.10;;;19.60;61.30;;;;;;5118860;28;20448;-82
2021/05/19 12:03:04;;;;;;;1.13;1.03;;;19.40;61.20;;;;;;5118925;28;20481;-83
2021/05/19 12:05:41;;;;;;;1.40;1.00;;;19.10;60.10;;;;;;5119139;28;20469;-82
2021/05/19 12:08:07;;;;;;;3.33;2.67;;;18.40;60.60;;;;;;5119798;28;20449;-82
2021/05/19 12:10:33;;;;;;;1.10;1.00;;;18.40;61.50;;;;;;5118992;28;20457;-82
2021/05/19 12:13:03;;;;;;;1.77;1.20;;;18.90;57.80;;;;;;5119060;28;20450;-82
2021/05/19 12:15:30;;;;;;;1.90;1.00;;;19.50;55.00;;;;;;5121481;28;20565;-83
2021/05/19 12:17:58;;;;;;;1.57;1.07;;;20.10;55.00;;;;;;5123203;28;20518;-83
2021/05/19 12:20:26;;;;;;;1.20;1.20;;;20.40;52.90;;;;;;5123312;28;20448;-82
2021/05/19 12:22:53;;;;;;;1.97;1.20;;;21.10;52.30;;;;;;5122899;28;20493;-82
2021/05/19 12:25:19;;;;;;;0.80;0.67;;;21.40;52.70;;;;;;5123058;28;20474;-82
2021/05/19 12:27:46;;;;;;;1.67;1.20;;;21.80;52.00;;;;;;5123087;28;20473;-83
2021/05/19 12:30:13;;;;;;;1.10;0.90;;;21.90;50.70;;;;;;5122999;28;20523;-81
2021/05/19 12:32:53;;;;;;;1.10;0.80;;;22.00;52.20;;;;;;5123588;28;20443;-83
2021/05/19 12:35:19;;;;;;;2.23;0.87;;;22.20;51.10;;;;;;5122573;28;20510;-83
2021/05/19 12:37:50;;;;;;;2.00;1.20;;;22.70;52.60;;;;;;5122464;28;20456;-83
2021/05/19 12:40:19;;;;;;;1.50;0.93;;;23.10;49.50;;;;;;5122733;28;20491;-83
2021/05/19 12:42:47;;;;;;;1.00;1.00;;;23.40;52.00;;;;;;5122594;28;20886;-83
2021/05/19 12:45:14;;;;;;;1.60;0.80;;;24.40;53.40;;;;;;5123153;28;20469;-83
2021/05/19 12:47:41;;;;;;;2.70;1.03;;;25.30;46.40;;;;;;5122422;28;20458;-83
2021/05/19 12:50:09;;;;;;;1.93;0.93;;;25.20;44.30;;;;;;5123115;28;20446;-82
2021/05/19 12:52:36;;;;;;;2.23;1.20;;;24.90;43.40;;;;;;5122860;28;20441;-83
2021/05/19 12:55:05;;;;;;;0.67;0.67;;;24.80;44.00;;;;;;5122894;28;20470;-83
2021/05/19 12:57:33;;;;;;;1.67;1.30;;;24.60;42.90;;;;;;5122244;28;20456;-82
2021/05/19 13:00:02;;;;;;;0.90;0.90;;;24.00;44.10;;;;;;5122079;28;20482;-81
2021/05/19 13:02:30;;;;;;;0.87;0.87;;;22.40;44.60;;;;;;5121089;28;20475;-81
2021/05/19 13:04:58;;;;;;;0.60;0.60;;;21.70;46.80;;;;;;5121378;28;20499;-81
2021/05/19 13:07:26;;;;;;;0.90;0.90;;;21.60;48.20;;;;;;5121441;28;20876;-81
2021/05/19 13:10:10;;;;;;;1.50;0.80;;;21.40;47.40;;;;;;5121287;28;20520;-81
2021/05/19 13:12:55;;;;;;;1.30;1.10;;;21.60;47.30;;;;;;5121729;28;20486;-81
2021/05/19 13:15:38;;;;;;;1.00;0.63;;;22.20;48.30;;;;;;5121290;28;20476;-81
2021/05/19 13:18:09;;;;;;;1.00;0.90;;;22.50;46.00;;;;;;5122010;28;20530;-81
2021/05/19 13:20:45;;;;;;;1.00;0.90;;;22.60;46.30;;;;;;5121562;28;20467;-82
2021/05/19 13:23:12;;;;;;;0.80;0.80;;;22.40;44.90;;;;;;5120751;28;20513;-81
2021/05/19 13:25:40;;;;;;;1.47;1.00;;;22.20;46.20;;;;;;5120438;28;20455;-81
2021/05/19 13:28:07;;;;;;;2.10;0.77;;;21.60;46.50;;;;;;5120818;28;21008;-80
2021/05/19 13:30:34;;;;;;;3.23;0.90;;;21.40;47.60;;;;;;5121679;28;20457;-81
2021/05/19 13:33:24;;;;;;;1.27;0.70;;;21.90;47.20;;;;;;5121031;28;20515;-81
2021/05/19 13:38:34;;;;;;;1.93;0.70;;;21.90;45.90;;;;;;5121498;28;20430;-81
2021/05/19 13:41:01;;;;;;;1.50;0.83;;;21.70;46.50;;;;;;5120470;28;20453;-80
2021/05/19 13:43:28;;;;;;;3.20;0.90;;;21.30;46.70;;;;;;5120621;28;20481;-81
2021/05/19 13:45:56;;;;;;;1.40;1.00;;;21.00;48.80;;;;;;5121407;28;20515;-81
2021/05/19 13:48:22;;;;;;;1.17;0.70;;;20.70;49.00;;;;;;5121179;28;20451;-81
2021/05/19 13:50:48;;;;;;;1.10;1.00;;;20.60;48.30;;;;;;5121488;28;20457;-81
2021/05/19 13:53:15;;;;;;;0.70;0.63;;;21.00;46.80;;;;;;5120917;28;20446;-81
2021/05/19 13:55:41;;;;;;;0.73;0.73;;;21.80;45.40;;;;;;5121392;28;20446;-81
2021/05/19 13:58:10;;;;;;;0.73;0.70;;;22.70;44.80;;;;;;5120459;28;20472;-81
2021/05/19 14:00:37;;;;;;;0.93;0.57;;;23.20;43.70;;;;;;5120914;28;20449;-81
2021/05/19 14:03:04;;;;;;;0.80;0.47;;;23.30;43.50;;;;;;5120575;28;20486;-80
2021/05/19 14:05:31;;;;;;;0.80;0.80;;;23.10;41.30;;;;;;5120063;28;20469;-81
2021/05/19 14:07:57;;;;;;;0.50;0.47;;;23.10;40.60;;;;;;5121144;28;20537;-81
2021/05/19 14:10:26;;;;;;;0.80;0.73;;;23.40;41.40;;;;;;5120523;28;20461;-80
2021/05/19 14:12:56;;;;;;;1.47;0.70;;;23.90;41.60;;;;;;5120681;28;20515;-81
2021/05/19 14:15:27;;;;;;;1.47;0.60;;;23.70;40.90;;;;;;5122435;28;20510;-81
2021/05/19 14:18:06;;;;;;;1.10;1.00;;;23.50;41.70;;;;;;5121521;28;20448;-80
2021/05/19 14:28:53;;;;;;;1.67;0.80;;;19.90;47.20;;;;;;5120031;28;20427;-81
2021/05/19 14:31:20;;;;;;;13.37;4.33;;;19.80;47.30;;;;;;5119573;28;20456;-79
2021/05/19 14:33:46;;;;;;;24.77;7.43;;;20.00;49.80;;;;;;5119531;28;20457;-81
2021/05/19 15:01:04;;;;;;;1.37;1.23;;;17.30;68.30;;;;;;5119233;28;20429;-80
2021/05/19 15:03:31;;;;;;;3.30;0.90;;;17.30;66.20;;;;;;5118641;28;20540;-80
2021/05/19 15:05:57;;;;;;;0.97;0.80;;;17.10;65.00;;;;;;5118852;28;20546;-80
2021/05/19 15:08:24;;;;;;;0.87;0.73;;;17.20;66.00;;;;;;5119591;28;20448;-80
2021/05/19 15:10:50;;;;;;;0.60;0.60;;;17.40;67.10;;;;;;5118575;28;20447;-80
2021/05/19 15:13:16;;;;;;;1.03;0.80;;;17.50;65.00;;;;;;5118650;28;20452;-80
2021/05/19 15:15:43;;;;;;;2.30;0.60;;;17.30;65.20;;;;;;5119511;28;20457;-80
2021/05/19 15:18:09;;;;;;;2.20;0.50;;;17.30;63.60;;;;;;5120638;28;20453;-79
2021/05/19 15:20:37;;;;;;;1.00;0.80;;;16.80;64.00;;;;;;5122335;28;20450;-79
2021/05/19 15:23:03;;;;;;;1.33;0.67;;;16.70;65.90;;;;;;5122340;28;20547;-79
2021/05/19 15:25:30;;;;;;;2.13;0.70;;;16.40;67.30;;;;;;5122062;28;20470;-79
2021/05/19 15:27:56;;;;;;;0.97;0.50;;;15.90;66.70;;;;;;5123114;28;20478;-80
2021/05/19 15:30:22;;;;;;;0.63;0.50;;;15.40;67.40;;;;;;5131516;28;20461;-80
2021/05/19 15:32:49;;;;;;;0.40;0.40;;;14.90;70.40;;;;;;5130747;28;20447;-80
2021/05/19 15:35:15;;;;;;;0.60;0.60;;;14.70;72.70;;;;;;5130975;28;20463;-79
2021/05/19 15:37:42;;;;;;;2.60;0.50;;;14.70;73.10;;;;;;5131514;28;20449;-79
2021/05/19 15:40:09;;;;;;;2.20;0.70;;;14.70;74.10;;;;;;5131442;28;20483;-79
2021/05/19 15:42:35;;;;;;;0.60;0.60;;;14.60;72.90;;;;;;5131151;28;20487;-79
2021/05/19 15:45:01;;;;;;;0.50;0.50;;;14.50;74.40;;;;;;5132457;28;20470;-80
2021/05/19 15:47:28;;;;;;;0.50;0.50;;;14.60;74.20;;;;;;5130636;28;20447;-79
2021/05/19 15:49:55;;;;;;;0.73;0.50;;;14.60;74.80;;;;;;5121992;28;20453;-81
2021/05/19 15:52:21;;;;;;;5.33;1.20;;;14.70;74.60;;;;;;5122674;28;20455;-81
2021/05/19 15:54:48;;;;;;;0.83;0.60;;;14.90;76.60;;;;;;5117916;28;20480;-80
2021/05/19 15:57:15;;;;;;;1.13;0.80;;;15.00;76.90;;;;;;5118652;28;20446;-81
2021/05/19 15:59:41;;;;;;;1.00;1.00;;;15.10;75.40;;;;;;5117914;28;20453;-81
2021/05/19 16:02:08;;;;;;;2.20;0.93;;;15.20;74.60;;;;;;5118147;28;20454;-80
2021/05/19 16:04:37;;;;;;;0.73;0.73;;;15.30;74.10;;;;;;5118062;28;20893;-81
2021/05/19 16:07:03;;;;;;;1.53;1.40;;;15.40;74.70;;;;;;5118219;28;20454;-80
2021/05/19 16:09:30;;;;;;;0.80;0.60;;;15.40;74.40;;;;;;5119543;28;20466;-81
2021/05/19 16:11:58;;;;;;;0.70;0.70;;;15.40;73.90;;;;;;5119136;28;20518;-81
2021/05/19 16:14:24;;;;;;;1.17;0.63;;;15.50;73.20;;;;;;5119327;28;20498;-81